sensor_id;sensor_type;location;lat;lon;timestamp;P1;durP1;ratioP1;P2;durP2;ratioP2
12846;SDS011;6492;48.128;8.320;2022-12-18T00:05:15;16.27;;;9.60;;
12846;SDS011;6492;48.128;8.320;2022-12-18T00:09:18;16.63;;;9.17;;
12846;SDS011;6492;48.128;8.320;2022-12-18T00:13:21;17.37;;;9.27;;
12846;SDS011;6492;48.128;8.320;2022-12-18T00:17:22;21.53;;;11.03;;
12846;SDS011;6492;48.128;8.320;2022-12-18T00:21:26;16.33;;;10.20;;
12846;SDS011;6492;48.128;8.320;2022-12-18T00:25:28;18.07;;;10.03;;
12846;SDS011;6492;48.128;8.320;2022-12-18T00:29:30;17.90;;;10.57;;
12846;SDS011;6492;48.128;8.320;2022-12-18T00:33:36;18.93;;;10.03;;
12846;SDS011;6492;48.128;8.320;2022-12-18T00:37:40;20.57;;;11.03;;
12846;SDS011;6492;48.128;8.320;2022-12-18T00:41:42;17.30;;;10.43;;
12846;SDS011;6492;48.128;8.320;2022-12-18T00:46:01;20.23;;;11.60;;
12846;SDS011;6492;48.128;8.320;2022-12-18T00:50:03;17.33;;;10.53;;
12846;SDS011;6492;48.128;8.320;2022-12-18T00:54:08;18.57;;;10.87;;
12846;SDS011;6492;48.128;8.320;2022-12-18T00:58:10;18.97;;;9.93;;
12846;SDS011;6492;48.128;8.320;2022-12-18T01:02:14;17.33;;;10.03;;
12846;SDS011;6492;48.128;8.320;2022-12-18T01:06:16;20.03;;;10.47;;
12846;SDS011;6492;48.128;8.320;2022-12-18T01:10:19;20.00;;;10.57;;
12846;SDS011;6492;48.128;8.320;2022-12-18T01:14:21;17.53;;;9.60;;
12846;SDS011;6492;48.128;8.320;2022-12-18T01:18:23;17.00;;;9.40;;
12846;SDS011;6492;48.128;8.320;2022-12-18T01:22:25;20.97;;;9.73;;
12846;SDS011;6492;48.128;8.320;2022-12-18T01:26:28;15.13;;;8.83;;
12846;SDS011;6492;48.128;8.320;2022-12-18T01:30:30;15.30;;;9.50;;
12846;SDS011;6492;48.128;8.320;2022-12-18T01:34:32;18.30;;;9.10;;
12846;SDS011;6492;48.128;8.320;2022-12-18T01:38:36;16.87;;;8.53;;
12846;SDS011;6492;48.128;8.320;2022-12-18T01:42:39;17.27;;;9.17;;
12846;SDS011;6492;48.128;8.320;2022-12-18T01:46:41;16.97;;;9.03;;
12846;SDS011;6492;48.128;8.320;2022-12-18T01:50:43;15.27;;;8.40;;
12846;SDS011;6492;48.128;8.320;2022-12-18T01:54:45;14.60;;;9.00;;
12846;SDS011;6492;48.128;8.320;2022-12-18T01:58:52;16.20;;;9.30;;
12846;SDS011;6492;48.128;8.320;2022-12-18T02:02:58;16.20;;;9.03;;
12846;SDS011;6492;48.128;8.320;2022-12-18T02:07:02;15.53;;;9.20;;
12846;SDS011;6492;48.128;8.320;2022-12-18T02:11:14;18.67;;;9.07;;
12846;SDS011;6492;48.128;8.320;2022-12-18T02:15:26;17.37;;;9.10;;
12846;SDS011;6492;48.128;8.320;2022-12-18T02:19:38;15.50;;;8.73;;
12846;SDS011;6492;48.128;8.320;2022-12-18T02:23:47;17.13;;;8.87;;
12846;SDS011;6492;48.128;8.320;2022-12-18T02:28:06;13.47;;;7.90;;
12846;SDS011;6492;48.128;8.320;2022-12-18T02:32:14;15.13;;;8.77;;
12846;SDS011;6492;48.128;8.320;2022-12-18T02:36:19;14.17;;;7.63;;
12846;SDS011;6492;48.128;8.320;2022-12-18T02:40:23;18.77;;;9.67;;
12846;SDS011;6492;48.128;8.320;2022-12-18T02:44:28;14.37;;;8.10;;
12846;SDS011;6492;48.128;8.320;2022-12-18T02:48:31;18.23;;;9.03;;
12846;SDS011;6492;48.128;8.320;2022-12-18T02:52:36;16.03;;;9.10;;
12846;SDS011;6492;48.128;8.320;2022-12-18T02:56:45;14.07;;;8.50;;
12846;SDS011;6492;48.128;8.320;2022-12-18T03:00:56;15.87;;;8.73;;
12846;SDS011;6492;48.128;8.320;2022-12-18T03:05:04;18.73;;;9.03;;
12846;SDS011;6492;48.128;8.320;2022-12-18T03:09:12;18.53;;;9.63;;
12846;SDS011;6492;48.128;8.320;2022-12-18T03:13:20;15.10;;;8.67;;
12846;SDS011;6492;48.128;8.320;2022-12-18T03:17:30;17.27;;;9.23;;
12846;SDS011;6492;48.128;8.320;2022-12-18T03:21:34;17.73;;;8.73;;
12846;SDS011;6492;48.128;8.320;2022-12-18T03:46:02;13.53;;;7.83;;
12846;SDS011;6492;48.128;8.320;2022-12-18T03:50:10;18.07;;;8.27;;
12846;SDS011;6492;48.128;8.320;2022-12-18T03:54:15;15.93;;;8.37;;
12846;SDS011;6492;48.128;8.320;2022-12-18T03:58:19;16.67;;;8.40;;
12846;SDS011;6492;48.128;8.320;2022-12-18T04:02:27;16.50;;;7.97;;
12846;SDS011;6492;48.128;8.320;2022-12-18T04:06:31;16.87;;;7.80;;
12846;SDS011;6492;48.128;8.320;2022-12-18T04:10:36;15.13;;;7.93;;
12846;SDS011;6492;48.128;8.320;2022-12-18T04:14:38;15.53;;;8.03;;
12846;SDS011;6492;48.128;8.320;2022-12-18T04:18:41;16.90;;;8.27;;
12846;SDS011;6492;48.128;8.320;2022-12-18T04:22:44;16.60;;;8.23;;
12846;SDS011;6492;48.128;8.320;2022-12-18T04:26:45;15.50;;;8.23;;
12846;SDS011;6492;48.128;8.320;2022-12-18T04:30:47;17.67;;;8.27;;
12846;SDS011;6492;48.128;8.320;2022-12-18T04:34:51;18.10;;;8.80;;
12846;SDS011;6492;48.128;8.320;2022-12-18T04:38:53;18.40;;;9.23;;
12846;SDS011;6492;48.128;8.320;2022-12-18T04:42:55;16.80;;;8.57;;
12846;SDS011;6492;48.128;8.320;2022-12-18T04:46:57;19.97;;;8.93;;
12846;SDS011;6492;48.128;8.320;2022-12-18T04:51:00;16.80;;;8.37;;
12846;SDS011;6492;48.128;8.320;2022-12-18T04:55:03;19.00;;;9.37;;
12846;SDS011;6492;48.128;8.320;2022-12-18T04:59:05;22.03;;;10.23;;
12846;SDS011;6492;48.128;8.320;2022-12-18T05:03:08;17.43;;;9.17;;
12846;SDS011;6492;48.128;8.320;2022-12-18T05:07:11;16.30;;;8.33;;
12846;SDS011;6492;48.128;8.320;2022-12-18T05:11:14;18.60;;;8.43;;
12846;SDS011;6492;48.128;8.320;2022-12-18T05:15:17;17.77;;;9.23;;
12846;SDS011;6492;48.128;8.320;2022-12-18T05:19:20;20.00;;;8.47;;
12846;SDS011;6492;48.128;8.320;2022-12-18T05:23:23;16.87;;;8.53;;
12846;SDS011;6492;48.128;8.320;2022-12-18T05:27:26;19.33;;;9.03;;
12846;SDS011;6492;48.128;8.320;2022-12-18T05:31:28;16.63;;;8.40;;
12846;SDS011;6492;48.128;8.320;2022-12-18T05:35:30;16.83;;;8.37;;
12846;SDS011;6492;48.128;8.320;2022-12-18T05:39:34;13.70;;;8.23;;
12846;SDS011;6492;48.128;8.320;2022-12-18T05:43:36;16.77;;;9.37;;
12846;SDS011;6492;48.128;8.320;2022-12-18T05:47:39;16.67;;;8.37;;
12846;SDS011;6492;48.128;8.320;2022-12-18T05:51:41;19.93;;;9.13;;
12846;SDS011;6492;48.128;8.320;2022-12-18T05:56:02;17.53;;;8.83;;
12846;SDS011;6492;48.128;8.320;2022-12-18T06:00:06;18.50;;;8.87;;
12846;SDS011;6492;48.128;8.320;2022-12-18T06:04:10;17.80;;;8.73;;
12846;SDS011;6492;48.128;8.320;2022-12-18T06:08:12;16.53;;;8.73;;
12846;SDS011;6492;48.128;8.320;2022-12-18T06:12:15;17.47;;;8.80;;
12846;SDS011;6492;48.128;8.320;2022-12-18T06:16:18;16.60;;;8.47;;
12846;SDS011;6492;48.128;8.320;2022-12-18T06:20:20;18.33;;;8.17;;
12846;SDS011;6492;48.128;8.320;2022-12-18T06:24:22;18.97;;;8.90;;
12846;SDS011;6492;48.128;8.320;2022-12-18T06:28:25;19.20;;;9.07;;
12846;SDS011;6492;48.128;8.320;2022-12-18T06:32:27;18.87;;;8.90;;
12846;SDS011;6492;48.128;8.320;2022-12-18T06:36:29;17.37;;;9.27;;
12846;SDS011;6492;48.128;8.320;2022-12-18T06:40:31;19.30;;;9.10;;
12846;SDS011;6492;48.128;8.320;2022-12-18T06:44:35;19.13;;;9.27;;
12846;SDS011;6492;48.128;8.320;2022-12-18T06:48:36;19.70;;;10.03;;
12846;SDS011;6492;48.128;8.320;2022-12-18T06:52:39;16.97;;;8.57;;
12846;SDS011;6492;48.128;8.320;2022-12-18T06:56:44;22.67;;;9.57;;
12846;SDS011;6492;48.128;8.320;2022-12-18T07:00:47;21.60;;;9.33;;
12846;SDS011;6492;48.128;8.320;2022-12-18T07:04:49;20.13;;;9.63;;
12846;SDS011;6492;48.128;8.320;2022-12-18T07:08:51;19.73;;;9.37;;
12846;SDS011;6492;48.128;8.320;2022-12-18T07:12:55;22.33;;;10.77;;
12846;SDS011;6492;48.128;8.320;2022-12-18T07:16:58;23.57;;;10.70;;
12846;SDS011;6492;48.128;8.320;2022-12-18T07:21:02;24.07;;;10.33;;
12846;SDS011;6492;48.128;8.320;2022-12-18T07:25:06;22.73;;;11.47;;
12846;SDS011;6492;48.128;8.320;2022-12-18T07:29:08;25.73;;;12.43;;
12846;SDS011;6492;48.128;8.320;2022-12-18T07:33:11;28.30;;;12.37;;
12846;SDS011;6492;48.128;8.320;2022-12-18T07:37:14;23.33;;;10.73;;
12846;SDS011;6492;48.128;8.320;2022-12-18T07:41:15;22.67;;;10.63;;
12846;SDS011;6492;48.128;8.320;2022-12-18T07:45:18;22.83;;;10.23;;
12846;SDS011;6492;48.128;8.320;2022-12-18T07:49:21;24.30;;;11.07;;
12846;SDS011;6492;48.128;8.320;2022-12-18T07:53:23;22.27;;;11.40;;
12846;SDS011;6492;48.128;8.320;2022-12-18T07:57:25;26.03;;;11.47;;
12846;SDS011;6492;48.128;8.320;2022-12-18T08:01:27;24.10;;;12.70;;
12846;SDS011;6492;48.128;8.320;2022-12-18T08:05:30;96.43;;;49.17;;
12846;SDS011;6492;48.128;8.320;2022-12-18T08:09:32;76.67;;;40.20;;
12846;SDS011;6492;48.128;8.320;2022-12-18T08:13:34;33.40;;;15.87;;
12846;SDS011;6492;48.128;8.320;2022-12-18T08:17:36;31.23;;;14.33;;
12846;SDS011;6492;48.128;8.320;2022-12-18T08:21:49;29.37;;;13.20;;
12846;SDS011;6492;48.128;8.320;2022-12-18T08:25:57;28.37;;;14.83;;
12846;SDS011;6492;48.128;8.320;2022-12-18T08:34:19;28.87;;;13.57;;
12846;SDS011;6492;48.128;8.320;2022-12-18T08:38:23;28.23;;;14.30;;
12846;SDS011;6492;48.128;8.320;2022-12-18T08:47:37;29.87;;;13.80;;
12846;SDS011;6492;48.128;8.320;2022-12-18T08:56:27;30.97;;;15.50;;
12846;SDS011;6492;48.128;8.320;2022-12-18T09:04:47;28.97;;;14.30;;
12846;SDS011;6492;48.128;8.320;2022-12-18T09:08:51;32.83;;;15.43;;
12846;SDS011;6492;48.128;8.320;2022-12-18T09:31:50;24.57;;;10.87;;
12846;SDS011;6492;48.128;8.320;2022-12-18T09:36:18;22.07;;;11.13;;
12846;SDS011;6492;48.128;8.320;2022-12-18T09:40:21;23.07;;;11.67;;
12846;SDS011;6492;48.128;8.320;2022-12-18T09:44:27;22.20;;;10.57;;
12846;SDS011;6492;48.128;8.320;2022-12-18T09:53:15;23.67;;;11.27;;
12846;SDS011;6492;48.128;8.320;2022-12-18T09:57:28;21.67;;;11.60;;
12846;SDS011;6492;48.128;8.320;2022-12-18T10:01:33;21.47;;;11.10;;
12846;SDS011;6492;48.128;8.320;2022-12-18T10:05:37;22.10;;;11.63;;
12846;SDS011;6492;48.128;8.320;2022-12-18T10:09:54;23.53;;;11.67;;
12846;SDS011;6492;48.128;8.320;2022-12-18T10:14:12;21.37;;;11.83;;
12846;SDS011;6492;48.128;8.320;2022-12-18T10:18:21;21.47;;;11.47;;
12846;SDS011;6492;48.128;8.320;2022-12-18T10:22:39;24.67;;;12.37;;
12846;SDS011;6492;48.128;8.320;2022-12-18T10:26:55;19.43;;;11.80;;
12846;SDS011;6492;48.128;8.320;2022-12-18T10:31:01;29.33;;;14.47;;
12846;SDS011;6492;48.128;8.320;2022-12-18T10:35:11;39.57;;;21.80;;
12846;SDS011;6492;48.128;8.320;2022-12-18T10:39:21;37.73;;;19.80;;
12846;SDS011;6492;48.128;8.320;2022-12-18T10:43:25;36.33;;;19.73;;
12846;SDS011;6492;48.128;8.320;2022-12-18T10:47:30;37.93;;;19.13;;
12846;SDS011;6492;48.128;8.320;2022-12-18T10:51:36;33.90;;;17.97;;
12846;SDS011;6492;48.128;8.320;2022-12-18T10:55:39;33.27;;;17.97;;
12846;SDS011;6492;48.128;8.320;2022-12-18T10:59:50;32.97;;;17.93;;
12846;SDS011;6492;48.128;8.320;2022-12-18T11:04:00;31.30;;;17.87;;
12846;SDS011;6492;48.128;8.320;2022-12-18T11:08:22;32.20;;;18.07;;
12846;SDS011;6492;48.128;8.320;2022-12-18T11:16:42;43.07;;;24.23;;
12846;SDS011;6492;48.128;8.320;2022-12-18T11:20:50;41.33;;;26.30;;
12846;SDS011;6492;48.128;8.320;2022-12-18T11:25:05;40.73;;;23.07;;
12846;SDS011;6492;48.128;8.320;2022-12-18T11:29:24;34.57;;;20.57;;
12846;SDS011;6492;48.128;8.320;2022-12-18T11:33:32;35.17;;;20.10;;
12846;SDS011;6492;48.128;8.320;2022-12-18T11:37:34;34.57;;;19.33;;
12846;SDS011;6492;48.128;8.320;2022-12-18T11:46:28;31.10;;;17.73;;
12846;SDS011;6492;48.128;8.320;2022-12-18T11:50:39;32.20;;;18.37;;
12846;SDS011;6492;48.128;8.320;2022-12-18T11:54:49;33.27;;;18.40;;
12846;SDS011;6492;48.128;8.320;2022-12-18T11:58:54;32.20;;;18.13;;
12846;SDS011;6492;48.128;8.320;2022-12-18T12:07:54;30.50;;;18.33;;
12846;SDS011;6492;48.128;8.320;2022-12-18T12:16:46;41.10;;;23.13;;
12846;SDS011;6492;48.128;8.320;2022-12-18T12:20:59;31.80;;;19.63;;
12846;SDS011;6492;48.128;8.320;2022-12-18T12:25:11;33.43;;;19.43;;
12846;SDS011;6492;48.128;8.320;2022-12-18T12:29:26;41.40;;;23.33;;
12846;SDS011;6492;48.128;8.320;2022-12-18T12:33:36;30.90;;;18.50;;
12846;SDS011;6492;48.128;8.320;2022-12-18T12:37:52;34.53;;;21.67;;
12846;SDS011;6492;48.128;8.320;2022-12-18T12:41:59;36.80;;;21.33;;
12846;SDS011;6492;48.128;8.320;2022-12-18T12:46:18;34.10;;;20.77;;
12846;SDS011;6492;48.128;8.320;2022-12-18T12:50:23;46.07;;;28.03;;
12846;SDS011;6492;48.128;8.320;2022-12-18T12:54:28;35.67;;;21.43;;
12846;SDS011;6492;48.128;8.320;2022-12-18T12:58:34;41.83;;;24.90;;
12846;SDS011;6492;48.128;8.320;2022-12-18T13:02:44;36.33;;;22.90;;
12846;SDS011;6492;48.128;8.320;2022-12-18T13:16:03;33.47;;;19.90;;
12846;SDS011;6492;48.128;8.320;2022-12-18T13:20:07;32.27;;;20.90;;
12846;SDS011;6492;48.128;8.320;2022-12-18T13:24:15;35.87;;;19.37;;
12846;SDS011;6492;48.128;8.320;2022-12-18T13:28:37;26.60;;;15.43;;
12846;SDS011;6492;48.128;8.320;2022-12-18T13:37:41;19.30;;;12.57;;
12846;SDS011;6492;48.128;8.320;2022-12-18T13:41:45;28.03;;;16.43;;
12846;SDS011;6492;48.128;8.320;2022-12-18T13:45:50;32.10;;;18.50;;
12846;SDS011;6492;48.128;8.320;2022-12-18T13:50:02;40.47;;;24.50;;
12846;SDS011;6492;48.128;8.320;2022-12-18T13:54:16;46.20;;;27.27;;
12846;SDS011;6492;48.128;8.320;2022-12-18T13:58:20;42.07;;;25.63;;
12846;SDS011;6492;48.128;8.320;2022-12-18T14:02:25;40.60;;;24.17;;
12846;SDS011;6492;48.128;8.320;2022-12-18T14:06:29;38.33;;;21.93;;
12846;SDS011;6492;48.128;8.320;2022-12-18T14:10:34;40.97;;;22.27;;
12846;SDS011;6492;48.128;8.320;2022-12-18T14:14:53;43.03;;;23.50;;
12846;SDS011;6492;48.128;8.320;2022-12-18T14:19:01;43.47;;;25.10;;
12846;SDS011;6492;48.128;8.320;2022-12-18T14:27:27;45.10;;;24.57;;
12846;SDS011;6492;48.128;8.320;2022-12-18T14:31:29;40.20;;;23.10;;
12846;SDS011;6492;48.128;8.320;2022-12-18T14:35:34;43.03;;;24.53;;
12846;SDS011;6492;48.128;8.320;2022-12-18T14:44:11;42.17;;;22.60;;
12846;SDS011;6492;48.128;8.320;2022-12-18T14:48:15;52.03;;;27.30;;
12846;SDS011;6492;48.128;8.320;2022-12-18T14:52:23;47.57;;;26.70;;
12846;SDS011;6492;48.128;8.320;2022-12-18T14:56:33;53.80;;;29.03;;
12846;SDS011;6492;48.128;8.320;2022-12-18T15:04:59;47.60;;;24.93;;
12846;SDS011;6492;48.128;8.320;2022-12-18T15:09:05;42.87;;;22.77;;
12846;SDS011;6492;48.128;8.320;2022-12-18T15:18:02;45.57;;;24.00;;
12846;SDS011;6492;48.128;8.320;2022-12-18T15:22:20;42.47;;;23.67;;
12846;SDS011;6492;48.128;8.320;2022-12-18T15:30:58;29.27;;;16.87;;
12846;SDS011;6492;48.128;8.320;2022-12-18T15:35:03;16.33;;;10.00;;
12846;SDS011;6492;48.128;8.320;2022-12-18T15:39:27;31.23;;;16.63;;
12846;SDS011;6492;48.128;8.320;2022-12-18T15:43:31;36.33;;;21.00;;
12846;SDS011;6492;48.128;8.320;2022-12-18T15:47:36;14.33;;;9.37;;
12846;SDS011;6492;48.128;8.320;2022-12-18T15:51:38;17.27;;;9.73;;
12846;SDS011;6492;48.128;8.320;2022-12-18T15:55:47;19.73;;;10.93;;
12846;SDS011;6492;48.128;8.320;2022-12-18T16:00:11;38.90;;;22.20;;
12846;SDS011;6492;48.128;8.320;2022-12-18T16:04:14;22.13;;;12.50;;
12846;SDS011;6492;48.128;8.320;2022-12-18T16:08:22;14.03;;;8.83;;
12846;SDS011;6492;48.128;8.320;2022-12-18T16:12:24;13.57;;;8.33;;
12846;SDS011;6492;48.128;8.320;2022-12-18T16:16:27;13.37;;;8.07;;
12846;SDS011;6492;48.128;8.320;2022-12-18T16:20:29;12.77;;;7.97;;
12846;SDS011;6492;48.128;8.320;2022-12-18T16:24:44;14.13;;;9.80;;
12846;SDS011;6492;48.128;8.320;2022-12-18T16:28:46;12.60;;;7.60;;
12846;SDS011;6492;48.128;8.320;2022-12-18T16:32:49;14.57;;;9.07;;
12846;SDS011;6492;48.128;8.320;2022-12-18T16:36:51;15.07;;;9.60;;
12846;SDS011;6492;48.128;8.320;2022-12-18T16:40:54;26.53;;;16.30;;
12846;SDS011;6492;48.128;8.320;2022-12-18T16:45:14;30.33;;;18.20;;
12846;SDS011;6492;48.128;8.320;2022-12-18T16:49:19;55.23;;;31.10;;
12846;SDS011;6492;48.128;8.320;2022-12-18T16:53:21;72.33;;;37.60;;
12846;SDS011;6492;48.128;8.320;2022-12-18T16:57:25;84.47;;;43.47;;
12846;SDS011;6492;48.128;8.320;2022-12-18T17:01:27;85.53;;;43.47;;
12846;SDS011;6492;48.128;8.320;2022-12-18T17:05:33;79.87;;;42.57;;
12846;SDS011;6492;48.128;8.320;2022-12-18T17:09:35;81.57;;;43.83;;
12846;SDS011;6492;48.128;8.320;2022-12-18T17:13:37;84.10;;;44.07;;
12846;SDS011;6492;48.128;8.320;2022-12-18T17:17:39;85.97;;;46.63;;
12846;SDS011;6492;48.128;8.320;2022-12-18T17:21:43;97.27;;;52.10;;
12846;SDS011;6492;48.128;8.320;2022-12-18T17:25:47;84.00;;;46.97;;
12846;SDS011;6492;48.128;8.320;2022-12-18T17:29:49;70.27;;;42.77;;
12846;SDS011;6492;48.128;8.320;2022-12-18T17:33:51;66.93;;;35.77;;
12846;SDS011;6492;48.128;8.320;2022-12-18T17:37:55;62.43;;;33.83;;
12846;SDS011;6492;48.128;8.320;2022-12-18T17:41:57;62.07;;;34.27;;
12846;SDS011;6492;48.128;8.320;2022-12-18T17:46:00;52.30;;;30.10;;
12846;SDS011;6492;48.128;8.320;2022-12-18T17:50:03;54.27;;;31.13;;
12846;SDS011;6492;48.128;8.320;2022-12-18T17:54:06;52.17;;;27.93;;
12846;SDS011;6492;48.128;8.320;2022-12-18T17:58:09;47.43;;;27.37;;
12846;SDS011;6492;48.128;8.320;2022-12-18T18:02:11;49.03;;;29.40;;
12846;SDS011;6492;48.128;8.320;2022-12-18T18:06:24;36.73;;;23.50;;
12846;SDS011;6492;48.128;8.320;2022-12-18T18:10:27;23.87;;;15.93;;
12846;SDS011;6492;48.128;8.320;2022-12-18T18:14:29;6.87;;;4.10;;
12846;SDS011;6492;48.128;8.320;2022-12-18T18:18:41;5.43;;;3.63;;
12846;SDS011;6492;48.128;8.320;2022-12-18T18:22:43;5.53;;;3.90;;
12846;SDS011;6492;48.128;8.320;2022-12-18T18:26:46;5.90;;;4.00;;
12846;SDS011;6492;48.128;8.320;2022-12-18T18:30:48;7.93;;;5.53;;
12846;SDS011;6492;48.128;8.320;2022-12-18T18:34:50;6.27;;;4.50;;
12846;SDS011;6492;48.128;8.320;2022-12-18T18:38:52;6.07;;;4.27;;
12846;SDS011;6492;48.128;8.320;2022-12-18T18:42:56;5.77;;;3.70;;
12846;SDS011;6492;48.128;8.320;2022-12-18T18:46:58;4.27;;;3.30;;
12846;SDS011;6492;48.128;8.320;2022-12-18T18:51:01;6.93;;;3.77;;
12846;SDS011;6492;48.128;8.320;2022-12-18T18:55:04;4.17;;;2.70;;
12846;SDS011;6492;48.128;8.320;2022-12-18T18:59:08;5.57;;;3.67;;
12846;SDS011;6492;48.128;8.320;2022-12-18T19:03:10;4.33;;;3.57;;
12846;SDS011;6492;48.128;8.320;2022-12-18T19:07:12;4.33;;;3.20;;
12846;SDS011;6492;48.128;8.320;2022-12-18T19:11:16;4.37;;;3.53;;
12846;SDS011;6492;48.128;8.320;2022-12-18T19:15:36;9.47;;;6.63;;
12846;SDS011;6492;48.128;8.320;2022-12-18T19:19:51;5.43;;;3.83;;
12846;SDS011;6492;48.128;8.320;2022-12-18T19:23:53;2.93;;;2.50;;
12846;SDS011;6492;48.128;8.320;2022-12-18T19:27:55;3.90;;;2.73;;
12846;SDS011;6492;48.128;8.320;2022-12-18T19:31:58;8.90;;;5.07;;
12846;SDS011;6492;48.128;8.320;2022-12-18T19:36:00;17.77;;;8.00;;
12846;SDS011;6492;48.128;8.320;2022-12-18T19:40:09;3.97;;;3.53;;
12846;SDS011;6492;48.128;8.320;2022-12-18T19:44:13;4.17;;;2.80;;
12846;SDS011;6492;48.128;8.320;2022-12-18T19:48:17;3.97;;;3.03;;
12846;SDS011;6492;48.128;8.320;2022-12-18T19:52:19;5.27;;;3.20;;
12846;SDS011;6492;48.128;8.320;2022-12-18T19:56:21;3.20;;;2.27;;
12846;SDS011;6492;48.128;8.320;2022-12-18T20:00:25;2.67;;;2.10;;
12846;SDS011;6492;48.128;8.320;2022-12-18T20:04:28;2.83;;;2.30;;
12846;SDS011;6492;48.128;8.320;2022-12-18T20:08:30;5.20;;;2.70;;
12846;SDS011;6492;48.128;8.320;2022-12-18T20:12:46;12.47;;;8.50;;
12846;SDS011;6492;48.128;8.320;2022-12-18T20:16:48;32.53;;;18.10;;
12846;SDS011;6492;48.128;8.320;2022-12-18T20:20:51;23.87;;;13.80;;
12846;SDS011;6492;48.128;8.320;2022-12-18T20:24:53;35.33;;;20.67;;
12846;SDS011;6492;48.128;8.320;2022-12-18T20:28:55;29.67;;;17.33;;
12846;SDS011;6492;48.128;8.320;2022-12-18T20:32:57;54.73;;;31.53;;
12846;SDS011;6492;48.128;8.320;2022-12-18T20:37:00;46.17;;;27.83;;
12846;SDS011;6492;48.128;8.320;2022-12-18T20:41:05;49.77;;;30.40;;
12846;SDS011;6492;48.128;8.320;2022-12-18T20:45:08;47.33;;;27.70;;
12846;SDS011;6492;48.128;8.320;2022-12-18T20:49:10;50.97;;;30.40;;
12846;SDS011;6492;48.128;8.320;2022-12-18T20:53:13;57.60;;;33.47;;
12846;SDS011;6492;48.128;8.320;2022-12-18T20:57:15;53.13;;;33.30;;
12846;SDS011;6492;48.128;8.320;2022-12-18T21:01:25;51.53;;;30.33;;
12846;SDS011;6492;48.128;8.320;2022-12-18T21:05:27;49.40;;;28.83;;
12846;SDS011;6492;48.128;8.320;2022-12-18T21:09:33;50.67;;;29.03;;
12846;SDS011;6492;48.128;8.320;2022-12-18T21:13:36;59.87;;;31.47;;
12846;SDS011;6492;48.128;8.320;2022-12-18T21:17:38;50.20;;;28.60;;
12846;SDS011;6492;48.128;8.320;2022-12-18T21:21:40;43.80;;;24.93;;
12846;SDS011;6492;48.128;8.320;2022-12-18T21:25:44;47.07;;;26.40;;
12846;SDS011;6492;48.128;8.320;2022-12-18T21:29:47;48.33;;;25.87;;
12846;SDS011;6492;48.128;8.320;2022-12-18T21:33:49;46.33;;;26.23;;
12846;SDS011;6492;48.128;8.320;2022-12-18T21:37:51;40.33;;;23.00;;
12846;SDS011;6492;48.128;8.320;2022-12-18T21:41:55;47.73;;;26.03;;
12846;SDS011;6492;48.128;8.320;2022-12-18T21:46:28;40.33;;;22.70;;
12846;SDS011;6492;48.128;8.320;2022-12-18T21:50:40;40.77;;;22.67;;
12846;SDS011;6492;48.128;8.320;2022-12-18T21:54:42;24.73;;;15.67;;
12846;SDS011;6492;48.128;8.320;2022-12-18T21:58:47;23.07;;;14.10;;
12846;SDS011;6492;48.128;8.320;2022-12-18T22:02:49;6.73;;;5.33;;
12846;SDS011;6492;48.128;8.320;2022-12-18T22:06:52;3.00;;;2.63;;
12846;SDS011;6492;48.128;8.320;2022-12-18T22:10:54;11.03;;;6.37;;
12846;SDS011;6492;48.128;8.320;2022-12-18T22:14:57;22.33;;;12.87;;
12846;SDS011;6492;48.128;8.320;2022-12-18T22:18:59;20.73;;;13.40;;
12846;SDS011;6492;48.128;8.320;2022-12-18T22:23:01;22.87;;;13.90;;
12846;SDS011;6492;48.128;8.320;2022-12-18T22:27:03;22.03;;;13.43;;
12846;SDS011;6492;48.128;8.320;2022-12-18T22:31:07;17.27;;;12.03;;
12846;SDS011;6492;48.128;8.320;2022-12-18T22:35:09;17.63;;;11.23;;
12846;SDS011;6492;48.128;8.320;2022-12-18T22:39:11;13.40;;;7.93;;
12846;SDS011;6492;48.128;8.320;2022-12-18T22:43:14;16.50;;;9.70;;
12846;SDS011;6492;48.128;8.320;2022-12-18T22:47:17;15.17;;;9.97;;
12846;SDS011;6492;48.128;8.320;2022-12-18T22:51:19;15.90;;;9.53;;
12846;SDS011;6492;48.128;8.320;2022-12-18T22:55:21;12.83;;;8.30;;
12846;SDS011;6492;48.128;8.320;2022-12-18T22:59:23;10.27;;;7.07;;
12846;SDS011;6492;48.128;8.320;2022-12-18T23:03:26;8.03;;;5.60;;
12846;SDS011;6492;48.128;8.320;2022-12-18T23:07:28;7.33;;;5.03;;
12846;SDS011;6492;48.128;8.320;2022-12-18T23:11:30;5.80;;;4.23;;
12846;SDS011;6492;48.128;8.320;2022-12-18T23:15:32;6.70;;;4.13;;
12846;SDS011;6492;48.128;8.320;2022-12-18T23:19:35;2.90;;;2.10;;
12846;SDS011;6492;48.128;8.320;2022-12-18T23:23:37;1.83;;;1.23;;
12846;SDS011;6492;48.128;8.320;2022-12-18T23:27:39;2.30;;;1.90;;
12846;SDS011;6492;48.128;8.320;2022-12-18T23:31:41;2.40;;;2.03;;
12846;SDS011;6492;48.128;8.320;2022-12-18T23:35:44;2.93;;;2.30;;
12846;SDS011;6492;48.128;8.320;2022-12-18T23:39:46;2.40;;;2.07;;
12846;SDS011;6492;48.128;8.320;2022-12-18T23:48:23;2.27;;;1.80;;
12846;SDS011;6492;48.128;8.320;2022-12-18T23:52:27;2.97;;;1.70;;
12846;SDS011;6492;48.128;8.320;2022-12-18T23:56:28;2.40;;;1.80;;
